sensor_id;sensor_type;location;lat;lon;timestamp;P1;durP1;ratioP1;P2;durP2;ratioP2
5054;SDS011;13829;48.990;8.346;2024-01-30T00:00:26;8.63;;;6.93;;
5054;SDS011;13829;48.990;8.346;2024-01-30T00:02:53;10.10;;;7.87;;
5054;SDS011;13829;48.990;8.346;2024-01-30T00:05:21;8.03;;;6.60;;
5054;SDS011;13829;48.990;8.346;2024-01-30T00:07:48;9.50;;;7.53;;
5054;SDS011;13829;48.990;8.346;2024-01-30T00:10:16;9.47;;;7.40;;
5054;SDS011;13829;48.990;8.346;2024-01-30T00:12:43;8.37;;;7.20;;
5054;SDS011;13829;48.990;8.346;2024-01-30T00:15:10;10.37;;;7.37;;
5054;SDS011;13829;48.990;8.346;2024-01-30T00:17:37;11.17;;;8.33;;
5054;SDS011;13829;48.990;8.346;2024-01-30T00:20:04;9.07;;;6.80;;
5054;SDS011;13829;48.990;8.346;2024-01-30T00:22:35;8.37;;;6.63;;
5054;SDS011;13829;48.990;8.346;2024-01-30T00:25:02;8.70;;;7.47;;
5054;SDS011;13829;48.990;8.346;2024-01-30T00:27:30;10.37;;;7.87;;
5054;SDS011;13829;48.990;8.346;2024-01-30T00:29:57;8.40;;;6.90;;
5054;SDS011;13829;48.990;8.346;2024-01-30T00:32:23;8.80;;;7.20;;
5054;SDS011;13829;48.990;8.346;2024-01-30T00:34:50;8.40;;;7.40;;
5054;SDS011;13829;48.990;8.346;2024-01-30T00:37:17;8.33;;;7.43;;
5054;SDS011;13829;48.990;8.346;2024-01-30T00:39:46;8.00;;;7.20;;
5054;SDS011;13829;48.990;8.346;2024-01-30T00:42:12;9.93;;;8.00;;
5054;SDS011;13829;48.990;8.346;2024-01-30T00:44:40;8.73;;;7.13;;
5054;SDS011;13829;48.990;8.346;2024-01-30T00:47:07;8.80;;;7.47;;
5054;SDS011;13829;48.990;8.346;2024-01-30T00:49:34;8.50;;;7.30;;
5054;SDS011;13829;48.990;8.346;2024-01-30T00:52:00;8.43;;;7.00;;
5054;SDS011;13829;48.990;8.346;2024-01-30T00:54:27;9.47;;;7.67;;
5054;SDS011;13829;48.990;8.346;2024-01-30T00:56:56;8.27;;;7.37;;
5054;SDS011;13829;48.990;8.346;2024-01-30T00:59:24;9.63;;;7.47;;
5054;SDS011;13829;48.990;8.346;2024-01-30T01:01:51;17.57;;;8.33;;
5054;SDS011;13829;48.990;8.346;2024-01-30T01:04:18;8.57;;;7.40;;
5054;SDS011;13829;48.990;8.346;2024-01-30T01:06:46;11.37;;;7.47;;
5054;SDS011;13829;48.990;8.346;2024-01-30T01:09:13;9.27;;;7.30;;
5054;SDS011;13829;48.990;8.346;2024-01-30T01:11:40;9.43;;;7.23;;
5054;SDS011;13829;48.990;8.346;2024-01-30T01:14:08;8.67;;;7.13;;
5054;SDS011;13829;48.990;8.346;2024-01-30T01:16:35;9.93;;;7.50;;
5054;SDS011;13829;48.990;8.346;2024-01-30T01:19:02;11.23;;;8.07;;
5054;SDS011;13829;48.990;8.346;2024-01-30T01:21:29;9.63;;;7.53;;
5054;SDS011;13829;48.990;8.346;2024-01-30T01:23:56;9.67;;;7.70;;
5054;SDS011;13829;48.990;8.346;2024-01-30T01:26:23;10.33;;;7.73;;
5054;SDS011;13829;48.990;8.346;2024-01-30T01:28:50;9.77;;;7.47;;
5054;SDS011;13829;48.990;8.346;2024-01-30T01:31:18;9.73;;;7.10;;
5054;SDS011;13829;48.990;8.346;2024-01-30T01:33:49;10.30;;;8.07;;
5054;SDS011;13829;48.990;8.346;2024-01-30T01:36:16;9.07;;;7.17;;
5054;SDS011;13829;48.990;8.346;2024-01-30T01:38:43;11.13;;;7.77;;
5054;SDS011;13829;48.990;8.346;2024-01-30T01:41:10;8.37;;;7.07;;
5054;SDS011;13829;48.990;8.346;2024-01-30T01:43:37;11.20;;;7.67;;
5054;SDS011;13829;48.990;8.346;2024-01-30T01:46:04;10.63;;;7.40;;
5054;SDS011;13829;48.990;8.346;2024-01-30T01:48:33;8.47;;;6.87;;
5054;SDS011;13829;48.990;8.346;2024-01-30T01:51:00;9.00;;;6.90;;
5054;SDS011;13829;48.990;8.346;2024-01-30T01:53:28;8.83;;;7.63;;
5054;SDS011;13829;48.990;8.346;2024-01-30T01:55:55;9.63;;;7.60;;
5054;SDS011;13829;48.990;8.346;2024-01-30T01:58:23;9.27;;;7.27;;
5054;SDS011;13829;48.990;8.346;2024-01-30T02:00:55;11.00;;;7.27;;
5054;SDS011;13829;48.990;8.346;2024-01-30T02:03:24;8.53;;;7.23;;
5054;SDS011;13829;48.990;8.346;2024-01-30T02:05:52;8.53;;;7.13;;
5054;SDS011;13829;48.990;8.346;2024-01-30T02:08:21;9.00;;;7.67;;
5054;SDS011;13829;48.990;8.346;2024-01-30T02:10:48;11.23;;;7.93;;
5054;SDS011;13829;48.990;8.346;2024-01-30T02:13:15;9.27;;;7.43;;
5054;SDS011;13829;48.990;8.346;2024-01-30T02:15:42;8.53;;;6.70;;
5054;SDS011;13829;48.990;8.346;2024-01-30T02:18:09;10.03;;;7.37;;
5054;SDS011;13829;48.990;8.346;2024-01-30T02:20:36;9.47;;;7.00;;
5054;SDS011;13829;48.990;8.346;2024-01-30T02:23:06;8.50;;;6.60;;
5054;SDS011;13829;48.990;8.346;2024-01-30T02:25:38;8.77;;;7.10;;
5054;SDS011;13829;48.990;8.346;2024-01-30T02:28:09;8.27;;;6.67;;
5054;SDS011;13829;48.990;8.346;2024-01-30T02:30:36;10.07;;;7.10;;
5054;SDS011;13829;48.990;8.346;2024-01-30T02:33:03;8.47;;;6.57;;
5054;SDS011;13829;48.990;8.346;2024-01-30T02:35:30;8.47;;;7.27;;
5054;SDS011;13829;48.990;8.346;2024-01-30T02:37:58;10.57;;;7.60;;
5054;SDS011;13829;48.990;8.346;2024-01-30T02:40:27;10.73;;;6.93;;
5054;SDS011;13829;48.990;8.346;2024-01-30T02:42:54;8.47;;;7.13;;
5054;SDS011;13829;48.990;8.346;2024-01-30T02:45:21;11.90;;;7.70;;
5054;SDS011;13829;48.990;8.346;2024-01-30T02:47:48;8.23;;;6.83;;
5054;SDS011;13829;48.990;8.346;2024-01-30T02:50:15;8.43;;;6.77;;
5054;SDS011;13829;48.990;8.346;2024-01-30T02:52:42;9.13;;;6.57;;
5054;SDS011;13829;48.990;8.346;2024-01-30T02:55:10;8.20;;;6.50;;
5054;SDS011;13829;48.990;8.346;2024-01-30T02:57:38;10.30;;;6.97;;
5054;SDS011;13829;48.990;8.346;2024-01-30T03:00:05;8.53;;;7.47;;
5054;SDS011;13829;48.990;8.346;2024-01-30T03:02:34;7.40;;;6.50;;
5054;SDS011;13829;48.990;8.346;2024-01-30T03:05:01;8.13;;;6.03;;
5054;SDS011;13829;48.990;8.346;2024-01-30T03:07:29;7.80;;;6.30;;
5054;SDS011;13829;48.990;8.346;2024-01-30T03:09:56;7.87;;;6.07;;
5054;SDS011;13829;48.990;8.346;2024-01-30T03:12:23;8.53;;;6.10;;
5054;SDS011;13829;48.990;8.346;2024-01-30T03:14:51;9.83;;;7.13;;
5054;SDS011;13829;48.990;8.346;2024-01-30T03:17:18;7.57;;;6.60;;
5054;SDS011;13829;48.990;8.346;2024-01-30T03:19:45;8.20;;;7.00;;
5054;SDS011;13829;48.990;8.346;2024-01-30T03:22:12;6.90;;;6.20;;
5054;SDS011;13829;48.990;8.346;2024-01-30T03:24:39;8.30;;;6.20;;
5054;SDS011;13829;48.990;8.346;2024-01-30T03:27:06;8.40;;;7.00;;
5054;SDS011;13829;48.990;8.346;2024-01-30T03:29:34;8.10;;;6.43;;
5054;SDS011;13829;48.990;8.346;2024-01-30T03:32:03;6.53;;;5.80;;
5054;SDS011;13829;48.990;8.346;2024-01-30T03:34:30;7.30;;;5.87;;
5054;SDS011;13829;48.990;8.346;2024-01-30T03:36:57;7.67;;;5.70;;
5054;SDS011;13829;48.990;8.346;2024-01-30T03:39:24;6.27;;;5.60;;
5054;SDS011;13829;48.990;8.346;2024-01-30T03:41:51;6.63;;;5.90;;
5054;SDS011;13829;48.990;8.346;2024-01-30T03:44:18;6.37;;;5.30;;
5054;SDS011;13829;48.990;8.346;2024-01-30T03:46:45;6.43;;;5.73;;
5054;SDS011;13829;48.990;8.346;2024-01-30T03:49:14;8.13;;;6.40;;
5054;SDS011;13829;48.990;8.346;2024-01-30T03:51:40;7.93;;;5.77;;
5054;SDS011;13829;48.990;8.346;2024-01-30T03:54:07;8.93;;;5.83;;
5054;SDS011;13829;48.990;8.346;2024-01-30T03:56:34;8.53;;;5.70;;
5054;SDS011;13829;48.990;8.346;2024-01-30T03:59:01;8.23;;;5.87;;
5054;SDS011;13829;48.990;8.346;2024-01-30T04:01:28;5.97;;;5.30;;
5054;SDS011;13829;48.990;8.346;2024-01-30T04:03:55;8.20;;;5.90;;
5054;SDS011;13829;48.990;8.346;2024-01-30T04:06:23;8.17;;;5.80;;
5054;SDS011;13829;48.990;8.346;2024-01-30T04:08:50;7.27;;;6.40;;
5054;SDS011;13829;48.990;8.346;2024-01-30T04:11:18;7.47;;;6.03;;
5054;SDS011;13829;48.990;8.346;2024-01-30T04:13:45;7.33;;;6.23;;
5054;SDS011;13829;48.990;8.346;2024-01-30T04:16:19;7.90;;;6.00;;
5054;SDS011;13829;48.990;8.346;2024-01-30T04:18:46;8.37;;;6.47;;
5054;SDS011;13829;48.990;8.346;2024-01-30T04:21:14;6.23;;;5.57;;
5054;SDS011;13829;48.990;8.346;2024-01-30T04:23:42;8.13;;;5.93;;
5054;SDS011;13829;48.990;8.346;2024-01-30T04:26:09;7.23;;;5.80;;
5054;SDS011;13829;48.990;8.346;2024-01-30T04:28:36;7.03;;;5.50;;
5054;SDS011;13829;48.990;8.346;2024-01-30T04:31:03;6.20;;;5.60;;
5054;SDS011;13829;48.990;8.346;2024-01-30T04:33:30;9.23;;;5.70;;
5054;SDS011;13829;48.990;8.346;2024-01-30T04:35:57;6.40;;;5.07;;
5054;SDS011;13829;48.990;8.346;2024-01-30T04:38:24;7.20;;;5.87;;
5054;SDS011;13829;48.990;8.346;2024-01-30T04:40:52;7.00;;;6.10;;
5054;SDS011;13829;48.990;8.346;2024-01-30T04:43:19;5.50;;;4.90;;
5054;SDS011;13829;48.990;8.346;2024-01-30T04:45:46;7.20;;;5.77;;
5054;SDS011;13829;48.990;8.346;2024-01-30T04:48:13;7.63;;;5.80;;
5054;SDS011;13829;48.990;8.346;2024-01-30T04:50:40;7.03;;;5.77;;
5054;SDS011;13829;48.990;8.346;2024-01-30T04:53:07;7.37;;;5.90;;
5054;SDS011;13829;48.990;8.346;2024-01-30T04:55:34;7.53;;;5.57;;
5054;SDS011;13829;48.990;8.346;2024-01-30T04:58:03;8.23;;;5.73;;
5054;SDS011;13829;48.990;8.346;2024-01-30T05:00:30;6.20;;;5.33;;
5054;SDS011;13829;48.990;8.346;2024-01-30T05:02:57;9.77;;;6.33;;
5054;SDS011;13829;48.990;8.346;2024-01-30T05:05:24;7.87;;;5.67;;
5054;SDS011;13829;48.990;8.346;2024-01-30T05:07:51;7.73;;;5.07;;
5054;SDS011;13829;48.990;8.346;2024-01-30T05:10:18;8.20;;;5.80;;
5054;SDS011;13829;48.990;8.346;2024-01-30T05:12:44;7.77;;;6.10;;
5054;SDS011;13829;48.990;8.346;2024-01-30T05:15:13;7.83;;;5.80;;
5054;SDS011;13829;48.990;8.346;2024-01-30T05:17:40;6.83;;;5.33;;
5054;SDS011;13829;48.990;8.346;2024-01-30T05:20:08;5.70;;;4.40;;
5054;SDS011;13829;48.990;8.346;2024-01-30T05:22:36;6.83;;;5.70;;
5054;SDS011;13829;48.990;8.346;2024-01-30T05:25:09;9.20;;;6.37;;
5054;SDS011;13829;48.990;8.346;2024-01-30T05:27:37;6.10;;;5.33;;
5054;SDS011;13829;48.990;8.346;2024-01-30T05:30:04;8.40;;;5.80;;
5054;SDS011;13829;48.990;8.346;2024-01-30T05:32:34;8.33;;;6.13;;
5054;SDS011;13829;48.990;8.346;2024-01-30T05:35:01;7.70;;;5.60;;
5054;SDS011;13829;48.990;8.346;2024-01-30T05:37:29;8.53;;;5.83;;
5054;SDS011;13829;48.990;8.346;2024-01-30T05:39:55;8.63;;;6.40;;
5054;SDS011;13829;48.990;8.346;2024-01-30T05:42:22;6.83;;;6.00;;
5054;SDS011;13829;48.990;8.346;2024-01-30T05:44:49;6.53;;;5.83;;
5054;SDS011;13829;48.990;8.346;2024-01-30T05:47:16;8.27;;;5.70;;
5054;SDS011;13829;48.990;8.346;2024-01-30T05:49:45;8.03;;;5.90;;
5054;SDS011;13829;48.990;8.346;2024-01-30T05:52:12;7.53;;;5.33;;
5054;SDS011;13829;48.990;8.346;2024-01-30T05:54:40;7.13;;;5.53;;
5054;SDS011;13829;48.990;8.346;2024-01-30T05:57:07;7.03;;;5.33;;
5054;SDS011;13829;48.990;8.346;2024-01-30T05:59:34;7.63;;;5.13;;
5054;SDS011;13829;48.990;8.346;2024-01-30T06:02:02;7.30;;;5.17;;
5054;SDS011;13829;48.990;8.346;2024-01-30T06:04:29;6.77;;;5.43;;
5054;SDS011;13829;48.990;8.346;2024-01-30T06:06:58;6.03;;;5.23;;
5054;SDS011;13829;48.990;8.346;2024-01-30T06:09:26;6.53;;;5.77;;
5054;SDS011;13829;48.990;8.346;2024-01-30T06:11:54;6.17;;;5.53;;
5054;SDS011;13829;48.990;8.346;2024-01-30T06:14:21;9.50;;;6.30;;
5054;SDS011;13829;48.990;8.346;2024-01-30T06:16:48;7.13;;;5.50;;
5054;SDS011;13829;48.990;8.346;2024-01-30T06:19:15;5.80;;;5.23;;
5054;SDS011;13829;48.990;8.346;2024-01-30T06:21:42;6.20;;;5.60;;
5054;SDS011;13829;48.990;8.346;2024-01-30T06:24:11;8.93;;;7.37;;
5054;SDS011;13829;48.990;8.346;2024-01-30T06:26:38;11.33;;;8.10;;
5054;SDS011;13829;48.990;8.346;2024-01-30T06:29:04;10.23;;;7.30;;
5054;SDS011;13829;48.990;8.346;2024-01-30T06:31:32;8.90;;;7.07;;
5054;SDS011;13829;48.990;8.346;2024-01-30T06:33:59;11.80;;;7.37;;
5054;SDS011;13829;48.990;8.346;2024-01-30T06:36:26;8.33;;;7.30;;
5054;SDS011;13829;48.990;8.346;2024-01-30T06:38:53;9.87;;;6.93;;
5054;SDS011;13829;48.990;8.346;2024-01-30T06:41:21;8.07;;;6.80;;
5054;SDS011;13829;48.990;8.346;2024-01-30T06:43:48;7.70;;;6.40;;
5054;SDS011;13829;48.990;8.346;2024-01-30T06:46:16;9.37;;;6.77;;
5054;SDS011;13829;48.990;8.346;2024-01-30T06:48:42;8.67;;;6.70;;
5054;SDS011;13829;48.990;8.346;2024-01-30T06:51:10;8.90;;;7.27;;
5054;SDS011;13829;48.990;8.346;2024-01-30T06:53:37;10.13;;;7.60;;
5054;SDS011;13829;48.990;8.346;2024-01-30T06:56:04;12.83;;;8.77;;
5054;SDS011;13829;48.990;8.346;2024-01-30T06:58:34;13.83;;;9.93;;
5054;SDS011;13829;48.990;8.346;2024-01-30T07:01:01;15.10;;;10.07;;
5054;SDS011;13829;48.990;8.346;2024-01-30T07:03:28;16.57;;;10.33;;
5054;SDS011;13829;48.990;8.346;2024-01-30T07:05:58;14.90;;;9.70;;
5054;SDS011;13829;48.990;8.346;2024-01-30T07:08:25;12.60;;;9.60;;
5054;SDS011;13829;48.990;8.346;2024-01-30T07:10:52;13.03;;;9.67;;
5054;SDS011;13829;48.990;8.346;2024-01-30T07:13:20;12.03;;;8.10;;
5054;SDS011;13829;48.990;8.346;2024-01-30T07:15:48;10.33;;;7.57;;
5054;SDS011;13829;48.990;8.346;2024-01-30T07:18:15;10.83;;;7.90;;
5054;SDS011;13829;48.990;8.346;2024-01-30T07:20:42;7.37;;;5.93;;
5054;SDS011;13829;48.990;8.346;2024-01-30T07:23:11;8.33;;;5.80;;
5054;SDS011;13829;48.990;8.346;2024-01-30T07:25:41;7.10;;;5.50;;
5054;SDS011;13829;48.990;8.346;2024-01-30T07:28:08;7.97;;;5.97;;
5054;SDS011;13829;48.990;8.346;2024-01-30T07:30:35;9.03;;;6.30;;
5054;SDS011;13829;48.990;8.346;2024-01-30T07:33:04;6.33;;;5.73;;
5054;SDS011;13829;48.990;8.346;2024-01-30T07:35:31;6.37;;;5.63;;
5054;SDS011;13829;48.990;8.346;2024-01-30T07:37:58;16.43;;;10.10;;
5054;SDS011;13829;48.990;8.346;2024-01-30T07:40:25;45.37;;;27.60;;
5054;SDS011;13829;48.990;8.346;2024-01-30T07:42:52;47.00;;;28.87;;
5054;SDS011;13829;48.990;8.346;2024-01-30T07:45:20;26.17;;;17.23;;
5054;SDS011;13829;48.990;8.346;2024-01-30T07:47:49;21.13;;;14.17;;
5054;SDS011;13829;48.990;8.346;2024-01-30T07:50:17;10.60;;;8.00;;
5054;SDS011;13829;48.990;8.346;2024-01-30T07:52:45;11.40;;;6.63;;
5054;SDS011;13829;48.990;8.346;2024-01-30T07:55:13;8.60;;;6.37;;
5054;SDS011;13829;48.990;8.346;2024-01-30T07:57:40;14.70;;;11.30;;
5054;SDS011;13829;48.990;8.346;2024-01-30T08:00:08;17.97;;;14.07;;
5054;SDS011;13829;48.990;8.346;2024-01-30T08:02:36;14.60;;;11.27;;
5054;SDS011;13829;48.990;8.346;2024-01-30T08:05:03;10.83;;;8.60;;
5054;SDS011;13829;48.990;8.346;2024-01-30T08:07:32;12.33;;;7.70;;
5054;SDS011;13829;48.990;8.346;2024-01-30T08:09:58;9.37;;;7.13;;
5054;SDS011;13829;48.990;8.346;2024-01-30T08:12:25;10.43;;;8.07;;
5054;SDS011;13829;48.990;8.346;2024-01-30T08:14:52;10.57;;;7.90;;
5054;SDS011;13829;48.990;8.346;2024-01-30T08:17:20;8.93;;;7.40;;
5054;SDS011;13829;48.990;8.346;2024-01-30T08:19:47;8.83;;;7.23;;
5054;SDS011;13829;48.990;8.346;2024-01-30T08:22:13;8.93;;;7.73;;
5054;SDS011;13829;48.990;8.346;2024-01-30T08:24:42;9.23;;;6.70;;
5054;SDS011;13829;48.990;8.346;2024-01-30T08:27:09;10.37;;;6.47;;
5054;SDS011;13829;48.990;8.346;2024-01-30T08:29:37;6.73;;;6.00;;
5054;SDS011;13829;48.990;8.346;2024-01-30T08:32:04;7.03;;;6.07;;
5054;SDS011;13829;48.990;8.346;2024-01-30T08:34:32;7.83;;;6.80;;
5054;SDS011;13829;48.990;8.346;2024-01-30T08:36:59;7.70;;;6.27;;
5054;SDS011;13829;48.990;8.346;2024-01-30T08:39:26;8.70;;;7.10;;
5054;SDS011;13829;48.990;8.346;2024-01-30T08:41:56;7.93;;;6.83;;
5054;SDS011;13829;48.990;8.346;2024-01-30T08:44:23;8.07;;;6.30;;
5054;SDS011;13829;48.990;8.346;2024-01-30T08:46:50;8.70;;;6.23;;
5054;SDS011;13829;48.990;8.346;2024-01-30T08:49:16;8.83;;;6.87;;
5054;SDS011;13829;48.990;8.346;2024-01-30T08:51:44;8.10;;;6.67;;
5054;SDS011;13829;48.990;8.346;2024-01-30T08:54:11;9.63;;;7.07;;
5054;SDS011;13829;48.990;8.346;2024-01-30T08:56:38;11.53;;;7.67;;
5054;SDS011;13829;48.990;8.346;2024-01-30T08:59:06;8.57;;;6.73;;
5054;SDS011;13829;48.990;8.346;2024-01-30T09:01:33;8.57;;;7.67;;
5054;SDS011;13829;48.990;8.346;2024-01-30T09:04:01;9.43;;;6.60;;
5054;SDS011;13829;48.990;8.346;2024-01-30T09:06:28;9.20;;;7.47;;
5054;SDS011;13829;48.990;8.346;2024-01-30T09:08:55;10.30;;;7.30;;
5054;SDS011;13829;48.990;8.346;2024-01-30T09:11:23;8.17;;;7.37;;
5054;SDS011;13829;48.990;8.346;2024-01-30T09:13:50;8.17;;;7.03;;
5054;SDS011;13829;48.990;8.346;2024-01-30T09:16:18;9.70;;;7.20;;
5054;SDS011;13829;48.990;8.346;2024-01-30T09:18:45;9.17;;;7.53;;
5054;SDS011;13829;48.990;8.346;2024-01-30T09:21:12;10.87;;;8.07;;
5054;SDS011;13829;48.990;8.346;2024-01-30T09:23:39;13.67;;;10.27;;
5054;SDS011;13829;48.990;8.346;2024-01-30T09:26:06;15.83;;;12.03;;
5054;SDS011;13829;48.990;8.346;2024-01-30T09:28:32;16.77;;;12.33;;
5054;SDS011;13829;48.990;8.346;2024-01-30T09:30:59;14.67;;;11.53;;
5054;SDS011;13829;48.990;8.346;2024-01-30T09:33:28;11.00;;;9.40;;
5054;SDS011;13829;48.990;8.346;2024-01-30T09:35:55;13.47;;;9.23;;
5054;SDS011;13829;48.990;8.346;2024-01-30T09:38:21;10.33;;;9.13;;
5054;SDS011;13829;48.990;8.346;2024-01-30T09:40:50;10.07;;;8.87;;
5054;SDS011;13829;48.990;8.346;2024-01-30T09:43:22;12.77;;;9.83;;
5054;SDS011;13829;48.990;8.346;2024-01-30T09:45:49;12.07;;;10.07;;
5054;SDS011;13829;48.990;8.346;2024-01-30T09:48:18;12.63;;;9.93;;
5054;SDS011;13829;48.990;8.346;2024-01-30T09:50:46;14.23;;;11.57;;
5054;SDS011;13829;48.990;8.346;2024-01-30T09:53:13;17.80;;;13.03;;
5054;SDS011;13829;48.990;8.346;2024-01-30T09:55:42;17.63;;;13.80;;
5054;SDS011;13829;48.990;8.346;2024-01-30T09:58:11;16.43;;;12.80;;
5054;SDS011;13829;48.990;8.346;2024-01-30T10:00:38;14.67;;;12.13;;
5054;SDS011;13829;48.990;8.346;2024-01-30T10:03:05;12.97;;;10.77;;
5054;SDS011;13829;48.990;8.346;2024-01-30T10:05:32;16.10;;;11.83;;
5054;SDS011;13829;48.990;8.346;2024-01-30T10:08:05;16.47;;;13.37;;
5054;SDS011;13829;48.990;8.346;2024-01-30T10:10:33;16.70;;;13.23;;
5054;SDS011;13829;48.990;8.346;2024-01-30T10:13:00;16.77;;;12.83;;
5054;SDS011;13829;48.990;8.346;2024-01-30T10:15:28;19.00;;;14.30;;
5054;SDS011;13829;48.990;8.346;2024-01-30T10:17:55;17.43;;;14.17;;
5054;SDS011;13829;48.990;8.346;2024-01-30T10:20:22;17.97;;;13.70;;
5054;SDS011;13829;48.990;8.346;2024-01-30T10:22:51;18.57;;;14.33;;
5054;SDS011;13829;48.990;8.346;2024-01-30T10:25:19;18.33;;;13.60;;
5054;SDS011;13829;48.990;8.346;2024-01-30T10:27:52;20.07;;;16.83;;
5054;SDS011;13829;48.990;8.346;2024-01-30T10:30:20;16.97;;;13.90;;
5054;SDS011;13829;48.990;8.346;2024-01-30T10:32:47;18.23;;;14.67;;
5054;SDS011;13829;48.990;8.346;2024-01-30T10:35:14;17.60;;;14.63;;
5054;SDS011;13829;48.990;8.346;2024-01-30T10:37:43;18.60;;;14.60;;
5054;SDS011;13829;48.990;8.346;2024-01-30T10:40:13;17.13;;;14.80;;
5054;SDS011;13829;48.990;8.346;2024-01-30T10:42:43;17.23;;;14.93;;
5054;SDS011;13829;48.990;8.346;2024-01-30T10:45:12;18.83;;;14.13;;
5054;SDS011;13829;48.990;8.346;2024-01-30T10:47:41;18.33;;;14.83;;
5054;SDS011;13829;48.990;8.346;2024-01-30T10:50:14;17.63;;;15.17;;
5054;SDS011;13829;48.990;8.346;2024-01-30T10:52:42;21.17;;;16.30;;
5054;SDS011;13829;48.990;8.346;2024-01-30T10:55:10;19.60;;;15.80;;
5054;SDS011;13829;48.990;8.346;2024-01-30T10:57:38;21.07;;;16.30;;
5054;SDS011;13829;48.990;8.346;2024-01-30T11:00:07;18.30;;;15.93;;
5054;SDS011;13829;48.990;8.346;2024-01-30T11:02:37;19.40;;;15.73;;
5054;SDS011;13829;48.990;8.346;2024-01-30T11:05:07;17.17;;;14.67;;
5054;SDS011;13829;48.990;8.346;2024-01-30T11:07:34;19.43;;;15.47;;
5054;SDS011;13829;48.990;8.346;2024-01-30T11:10:02;19.13;;;14.43;;
5054;SDS011;13829;48.990;8.346;2024-01-30T11:12:32;20.80;;;14.17;;
5054;SDS011;13829;48.990;8.346;2024-01-30T11:15:08;20.80;;;15.57;;
5054;SDS011;13829;48.990;8.346;2024-01-30T11:17:40;19.97;;;14.70;;
5054;SDS011;13829;48.990;8.346;2024-01-30T11:20:16;19.90;;;14.80;;
5054;SDS011;13829;48.990;8.346;2024-01-30T11:22:46;18.67;;;14.77;;
5054;SDS011;13829;48.990;8.346;2024-01-30T11:25:15;19.23;;;14.63;;
5054;SDS011;13829;48.990;8.346;2024-01-30T11:27:45;20.37;;;14.93;;
5054;SDS011;13829;48.990;8.346;2024-01-30T11:30:23;19.73;;;15.83;;
5054;SDS011;13829;48.990;8.346;2024-01-30T11:33:00;20.10;;;14.93;;
5054;SDS011;13829;48.990;8.346;2024-01-30T11:35:31;38.07;;;16.03;;
5054;SDS011;13829;48.990;8.346;2024-01-30T11:37:59;19.93;;;14.47;;
5054;SDS011;13829;48.990;8.346;2024-01-30T11:40:28;21.10;;;15.67;;
5054;SDS011;13829;48.990;8.346;2024-01-30T11:42:56;24.87;;;18.13;;
5054;SDS011;13829;48.990;8.346;2024-01-30T11:45:28;24.50;;;17.30;;
5054;SDS011;13829;48.990;8.346;2024-01-30T11:47:55;19.37;;;15.30;;
5054;SDS011;13829;48.990;8.346;2024-01-30T11:50:25;23.33;;;15.80;;
5054;SDS011;13829;48.990;8.346;2024-01-30T11:52:52;18.47;;;15.33;;
5054;SDS011;13829;48.990;8.346;2024-01-30T11:55:20;19.17;;;15.33;;
5054;SDS011;13829;48.990;8.346;2024-01-30T11:57:49;18.80;;;16.20;;
5054;SDS011;13829;48.990;8.346;2024-01-30T12:00:16;17.27;;;15.03;;
5054;SDS011;13829;48.990;8.346;2024-01-30T12:02:50;20.20;;;17.07;;
5054;SDS011;13829;48.990;8.346;2024-01-30T12:05:20;23.60;;;16.37;;
5054;SDS011;13829;48.990;8.346;2024-01-30T12:07:48;20.53;;;16.13;;
5054;SDS011;13829;48.990;8.346;2024-01-30T12:10:15;17.80;;;15.23;;
5054;SDS011;13829;48.990;8.346;2024-01-30T12:12:45;23.70;;;16.07;;
5054;SDS011;13829;48.990;8.346;2024-01-30T12:15:15;20.13;;;15.50;;
5054;SDS011;13829;48.990;8.346;2024-01-30T12:17:43;21.40;;;15.47;;
5054;SDS011;13829;48.990;8.346;2024-01-30T12:20:12;16.07;;;14.37;;
5054;SDS011;13829;48.990;8.346;2024-01-30T12:22:41;19.70;;;14.90;;
5054;SDS011;13829;48.990;8.346;2024-01-30T12:25:09;20.10;;;15.60;;
5054;SDS011;13829;48.990;8.346;2024-01-30T12:27:38;17.70;;;14.43;;
5054;SDS011;13829;48.990;8.346;2024-01-30T12:30:09;18.50;;;14.50;;
5054;SDS011;13829;48.990;8.346;2024-01-30T12:32:39;22.57;;;14.73;;
5054;SDS011;13829;48.990;8.346;2024-01-30T12:35:09;17.07;;;13.87;;
5054;SDS011;13829;48.990;8.346;2024-01-30T12:37:38;20.13;;;14.00;;
5054;SDS011;13829;48.990;8.346;2024-01-30T12:40:06;21.60;;;15.07;;
5054;SDS011;13829;48.990;8.346;2024-01-30T12:42:34;35.60;;;15.87;;
5054;SDS011;13829;48.990;8.346;2024-01-30T12:45:01;21.63;;;15.73;;
5054;SDS011;13829;48.990;8.346;2024-01-30T12:47:30;18.10;;;14.80;;
5054;SDS011;13829;48.990;8.346;2024-01-30T12:49:57;18.10;;;14.23;;
5054;SDS011;13829;48.990;8.346;2024-01-30T12:52:26;17.73;;;14.37;;
5054;SDS011;13829;48.990;8.346;2024-01-30T12:54:53;23.43;;;13.90;;
5054;SDS011;13829;48.990;8.346;2024-01-30T12:57:20;21.77;;;14.80;;
5054;SDS011;13829;48.990;8.346;2024-01-30T12:59:47;21.60;;;14.10;;
5054;SDS011;13829;48.990;8.346;2024-01-30T13:02:15;17.77;;;13.13;;
5054;SDS011;13829;48.990;8.346;2024-01-30T13:04:42;18.47;;;13.33;;
5054;SDS011;13829;48.990;8.346;2024-01-30T13:07:10;15.83;;;13.73;;
5054;SDS011;13829;48.990;8.346;2024-01-30T13:09:38;17.87;;;14.80;;
5054;SDS011;13829;48.990;8.346;2024-01-30T13:12:05;18.80;;;14.93;;
5054;SDS011;13829;48.990;8.346;2024-01-30T13:14:32;19.97;;;14.93;;
5054;SDS011;13829;48.990;8.346;2024-01-30T13:16:59;19.07;;;14.03;;
5054;SDS011;13829;48.990;8.346;2024-01-30T13:19:27;19.90;;;13.53;;
5054;SDS011;13829;48.990;8.346;2024-01-30T13:21:54;16.97;;;14.10;;
5054;SDS011;13829;48.990;8.346;2024-01-30T13:24:21;21.27;;;14.60;;
5054;SDS011;13829;48.990;8.346;2024-01-30T13:26:49;16.07;;;13.13;;
5054;SDS011;13829;48.990;8.346;2024-01-30T13:29:16;21.50;;;14.03;;
5054;SDS011;13829;48.990;8.346;2024-01-30T13:31:44;19.00;;;13.53;;
5054;SDS011;13829;48.990;8.346;2024-01-30T13:34:12;15.97;;;12.73;;
5054;SDS011;13829;48.990;8.346;2024-01-30T13:36:39;17.13;;;13.53;;
5054;SDS011;13829;48.990;8.346;2024-01-30T13:39:06;16.27;;;13.80;;
5054;SDS011;13829;48.990;8.346;2024-01-30T13:41:37;15.77;;;13.23;;
5054;SDS011;13829;48.990;8.346;2024-01-30T13:44:05;15.80;;;12.87;;
5054;SDS011;13829;48.990;8.346;2024-01-30T13:46:32;15.40;;;11.90;;
5054;SDS011;13829;48.990;8.346;2024-01-30T13:49:00;15.57;;;12.17;;
5054;SDS011;13829;48.990;8.346;2024-01-30T13:51:27;16.20;;;12.03;;
5054;SDS011;13829;48.990;8.346;2024-01-30T13:53:54;14.13;;;12.03;;
5054;SDS011;13829;48.990;8.346;2024-01-30T13:56:21;14.60;;;11.00;;
5054;SDS011;13829;48.990;8.346;2024-01-30T13:58:49;14.83;;;11.20;;
5054;SDS011;13829;48.990;8.346;2024-01-30T14:01:18;19.57;;;11.50;;
5054;SDS011;13829;48.990;8.346;2024-01-30T14:03:45;14.27;;;10.70;;
5054;SDS011;13829;48.990;8.346;2024-01-30T14:06:12;13.67;;;10.73;;
5054;SDS011;13829;48.990;8.346;2024-01-30T14:08:39;13.30;;;10.77;;
5054;SDS011;13829;48.990;8.346;2024-01-30T14:11:06;15.00;;;10.23;;
5054;SDS011;13829;48.990;8.346;2024-01-30T14:13:33;16.87;;;10.80;;
5054;SDS011;13829;48.990;8.346;2024-01-30T14:16:00;12.87;;;9.67;;
5054;SDS011;13829;48.990;8.346;2024-01-30T14:18:28;12.10;;;10.00;;
5054;SDS011;13829;48.990;8.346;2024-01-30T14:20:55;12.87;;;9.90;;
5054;SDS011;13829;48.990;8.346;2024-01-30T14:23:22;14.97;;;11.07;;
5054;SDS011;13829;48.990;8.346;2024-01-30T14:25:50;13.77;;;10.70;;
5054;SDS011;13829;48.990;8.346;2024-01-30T14:28:17;17.20;;;12.20;;
5054;SDS011;13829;48.990;8.346;2024-01-30T14:30:44;16.17;;;11.23;;
5054;SDS011;13829;48.990;8.346;2024-01-30T14:33:12;14.03;;;10.43;;
5054;SDS011;13829;48.990;8.346;2024-01-30T14:35:40;14.10;;;10.60;;
5054;SDS011;13829;48.990;8.346;2024-01-30T14:38:07;14.37;;;11.83;;
5054;SDS011;13829;48.990;8.346;2024-01-30T14:40:34;14.60;;;11.20;;
5054;SDS011;13829;48.990;8.346;2024-01-30T14:43:03;13.60;;;11.07;;
5054;SDS011;13829;48.990;8.346;2024-01-30T14:45:30;18.23;;;11.27;;
5054;SDS011;13829;48.990;8.346;2024-01-30T14:47:57;14.80;;;9.93;;
5054;SDS011;13829;48.990;8.346;2024-01-30T14:50:25;16.43;;;11.40;;
5054;SDS011;13829;48.990;8.346;2024-01-30T14:52:54;15.70;;;11.60;;